Time;durP1;ratioP1;P1;durP2;ratioP2;P2;SDS_P1;SDS_P2;PMS_P1;PMS_P2;Temp;Humidity;BMP_temperature;BMP_pressure;BME280_temperature;BME280_humidity;BME280_pressure;Samples;Min_cycle;Max_cycle;Signal;HPM_P1;HPM_P2
2023/01/08 00:01:06;;;;;;;4.47;3.17;;;9.10;99.90;;;;;;5091025;28;20120;-67
2023/01/08 00:03:33;;;;;;;5.57;3.10;;;9.20;99.90;;;;;;5093247;28;20391;-66
2023/01/08 00:06:02;;;;;;;4.57;3.20;;;9.20;99.90;;;;;;5075616;28;20048;-67
2023/01/08 00:08:29;;;;;;;4.20;3.25;;;9.20;99.90;;;;;;5092670;28;20579;-67
2023/01/08 00:10:56;;;;;;;5.38;3.33;;;9.20;99.90;;;;;;5093314;28;20403;-67
2023/01/08 00:13:23;;;;;;;9.25;3.47;;;9.30;99.90;;;;;;5075101;28;20138;-66
2023/01/08 00:15:50;;;;;;;5.75;3.65;;;9.30;99.90;;;;;;5074702;28;20044;-66
2023/01/08 00:18:18;;;;;;;5.65;3.03;;;9.40;99.90;;;;;;5075124;28;20048;-67
2023/01/08 00:20:46;;;;;;;4.43;2.90;;;9.40;99.90;;;;;;5092822;28;20047;-66
2023/01/08 00:23:14;;;;;;;5.13;3.00;;;9.40;99.90;;;;;;5074292;28;20109;-66
2023/01/08 00:25:41;;;;;;;5.25;3.38;;;9.50;99.90;;;;;;5075266;28;20040;-67
2023/01/08 00:28:08;;;;;;;3.78;2.70;;;9.50;99.90;;;;;;5092778;28;20113;-67
2023/01/08 00:30:35;;;;;;;4.85;2.70;;;9.50;99.90;;;;;;5089977;28;20044;-66
2023/01/08 00:33:02;;;;;;;3.80;2.60;;;9.50;99.90;;;;;;5074828;28;20499;-67
2023/01/08 00:35:30;;;;;;;4.00;2.97;;;9.50;99.90;;;;;;5074899;28;20052;-67
2023/01/08 00:37:57;;;;;;;4.70;2.78;;;9.60;99.90;;;;;;5092311;28;20055;-67
2023/01/08 00:40:24;;;;;;;4.55;2.80;;;9.50;99.90;;;;;;5074693;28;20450;-67
2023/01/08 00:42:51;;;;;;;7.70;3.78;;;9.50;99.90;;;;;;5073737;28;20055;-67
2023/01/08 00:45:18;;;;;;;7.60;2.67;;;9.40;99.90;;;;;;5092616;28;20105;-67
2023/01/08 00:47:45;;;;;;;4.60;2.88;;;9.40;99.90;;;;;;5092495;28;20058;-67
2023/01/08 00:50:12;;;;;;;5.15;3.10;;;9.40;99.90;;;;;;5092115;28;20044;-67
2023/01/08 00:52:40;;;;;;;4.60;3.00;;;9.50;99.90;;;;;;5092684;28;20070;-66
2023/01/08 00:55:08;;;;;;;4.55;3.45;;;9.40;99.90;;;;;;5074443;28;20044;-66
2023/01/08 00:57:35;;;;;;;4.63;2.67;;;9.40;99.90;;;;;;5071863;28;20055;-66
2023/01/08 01:00:02;;;;;;;5.22;3.08;;;9.40;99.90;;;;;;5092117;28;20048;-67
2023/01/08 01:02:29;;;;;;;3.83;2.88;;;9.40;99.90;;;;;;5074433;28;20047;-67
2023/01/08 01:04:55;;;;;;;5.43;2.80;;;9.30;99.90;;;;;;5073490;28;20052;-67
2023/01/08 01:07:23;;;;;;;5.00;2.95;;;9.30;99.90;;;;;;5074543;28;20492;-67
2023/01/08 01:09:51;;;;;;;3.70;2.70;;;9.30;99.90;;;;;;5074107;28;20059;-67
2023/01/08 01:12:18;;;;;;;4.85;2.80;;;9.30;99.90;;;;;;5073930;28;20040;-67
2023/01/08 01:14:45;;;;;;;6.50;2.70;;;9.30;99.90;;;;;;5092241;28;20043;-67
2023/01/08 01:17:12;;;;;;;6.50;3.13;;;9.30;99.90;;;;;;5092255;28;20052;-67
2023/01/08 01:19:40;;;;;;;4.20;2.22;;;9.30;99.90;;;;;;5073454;28;20461;-66
2023/01/08 01:22:07;;;;;;;5.88;2.55;;;9.30;99.90;;;;;;5073973;28;20044;-67
2023/01/08 01:24:34;;;;;;;4.53;2.38;;;9.30;99.90;;;;;;5074007;28;20507;-68
2023/01/08 01:27:03;;;;;;;4.75;2.20;;;9.30;99.90;;;;;;5091452;28;20044;-68
2023/01/08 01:29:29;;;;;;;3.40;2.28;;;9.30;99.90;;;;;;5073942;28;20052;-67
2023/01/08 01:31:56;;;;;;;3.90;2.45;;;9.30;99.90;;;;;;5073332;28;20048;-67
2023/01/08 01:34:23;;;;;;;4.13;2.35;;;9.30;99.90;;;;;;5074152;28;20051;-67
2023/01/08 01:36:50;;;;;;;5.00;3.08;;;9.30;99.90;;;;;;5071951;28;20094;-67
2023/01/08 01:39:18;;;;;;;4.13;2.13;;;9.30;99.90;;;;;;5074894;28;20473;-67
2023/01/08 01:41:46;;;;;;;6.95;2.35;;;9.30;99.90;;;;;;5078405;28;20079;-67
2023/01/08 01:44:38;;;;;;;3.80;2.30;;;9.30;99.90;;;;;;5077835;28;20451;-67
2023/01/08 01:47:14;;;;;;;3.83;2.30;;;9.40;99.90;;;;;;5094989;28;20040;-67
2023/01/08 01:49:45;;;;;;;4.25;2.38;;;9.30;99.90;;;;;;5095865;28;20492;-68
2023/01/08 01:52:12;;;;;;;5.03;2.85;;;9.30;99.90;;;;;;5096172;28;20043;-67
2023/01/08 01:54:39;;;;;;;4.68;2.75;;;9.20;99.90;;;;;;5077232;28;20051;-67
2023/01/08 01:57:07;;;;;;;4.65;2.72;;;9.20;99.90;;;;;;5095868;28;20055;-67
2023/01/08 01:59:36;;;;;;;3.85;2.67;;;9.20;99.90;;;;;;5095773;28;20052;-67
2023/01/08 02:02:03;;;;;;;3.97;2.47;;;9.10;99.90;;;;;;5076971;28;20515;-67
2023/01/08 02:04:30;;;;;;;3.72;2.47;;;9.10;99.90;;;;;;5077621;28;20044;-67
2023/01/08 02:07:03;;;;;;;4.47;2.47;;;9.10;99.90;;;;;;5077767;28;20044;-67
2023/01/08 02:09:41;;;;;;;5.57;3.00;;;9.00;99.90;;;;;;5077181;28;20052;-67
2023/01/08 02:12:18;;;;;;;5.57;2.78;;;9.00;99.90;;;;;;5095643;28;20555;-67
2023/01/08 02:15:00;;;;;;;5.88;2.50;;;9.10;99.90;;;;;;5092743;28;20063;-67
2023/01/08 02:17:35;;;;;;;6.88;2.25;;;9.00;99.90;;;;;;5076342;28;20044;-67
2023/01/08 02:20:08;;;;;;;6.80;3.20;;;9.00;99.90;;;;;;5094071;28;20044;-67
2023/01/08 02:22:47;;;;;;;7.00;2.78;;;8.90;99.90;;;;;;5075438;28;20110;-67
2023/01/08 02:25:29;;;;;;;7.95;2.55;;;8.90;99.90;;;;;;5076475;28;20052;-67
2023/01/08 02:28:00;;;;;;;5.68;2.33;;;8.90;99.90;;;;;;5095393;28;20442;-66
2023/01/08 02:30:27;;;;;;;7.88;2.30;;;8.80;99.90;;;;;;5094677;28;20044;-66
2023/01/08 02:32:54;;;;;;;7.25;2.28;;;8.80;99.90;;;;;;5077357;28;20058;-67
2023/01/08 02:35:21;;;;;;;5.25;2.42;;;8.80;99.90;;;;;;5092563;28;20055;-67
2023/01/08 02:37:48;;;;;;;6.15;2.30;;;8.70;99.90;;;;;;5077271;28;20064;-67
2023/01/08 02:40:22;;;;;;;7.20;1.95;;;8.70;99.90;;;;;;5076883;28;20105;-67
2023/01/08 02:42:56;;;;;;;6.35;2.50;;;8.60;99.90;;;;;;5074426;28;20101;-67
2023/01/08 02:45:38;;;;;;;10.43;2.40;;;8.60;99.90;;;;;;5074747;28;20044;-67
2023/01/08 02:48:11;;;;;;;5.18;2.30;;;8.50;99.90;;;;;;5076246;28;20051;-67
2023/01/08 02:50:43;;;;;;;8.85;2.20;;;8.50;99.90;;;;;;5092692;28;20058;-67
2023/01/08 02:53:14;;;;;;;7.90;3.03;;;8.40;99.90;;;;;;5093222;28;20036;-67
2023/01/08 02:55:44;;;;;;;11.10;2.85;;;8.40;99.90;;;;;;5094895;28;20067;-66
2023/01/08 02:58:11;;;;;;;;;;;8.40;99.90;;;;;;5076333;28;20473;-67
2023/01/08 03:00:42;;;;;;;7.63;2.00;;;8.30;99.90;;;;;;5094509;28;19931;-67
2023/01/08 03:03:14;;;;;;;10.82;2.35;;;8.30;99.90;;;;;;5094607;28;20051;-67
2023/01/08 03:05:43;;;;;;;9.13;2.10;;;8.20;99.90;;;;;;5076366;28;20245;-67
2023/01/08 03:08:12;;;;;;;7.72;2.58;;;8.20;99.90;;;;;;5076239;28;20058;-68
2023/01/08 03:10:41;;;;;;;10.20;2.42;;;8.20;99.90;;;;;;5075749;28;20048;-67
2023/01/08 03:13:13;;;;;;;14.48;2.97;;;8.20;99.90;;;;;;5076557;28;20044;-67
2023/01/08 03:15:47;;;;;;;11.75;2.88;;;8.10;99.90;;;;;;5076257;28;20063;-67
2023/01/08 03:18:20;;;;;;;8.77;2.25;;;8.10;99.90;;;;;;5075899;28;20141;-67
2023/01/08 03:20:49;;;;;;;9.95;2.65;;;8.00;99.90;;;;;;5076128;28;20059;-67
2023/01/08 03:23:17;;;;;;;7.32;2.35;;;8.00;99.90;;;;;;5094218;28;20115;-67
2023/01/08 03:25:47;;;;;;;10.80;2.60;;;8.00;99.90;;;;;;5075578;28;20059;-67
2023/01/08 03:28:18;;;;;;;9.93;2.47;;;7.90;99.90;;;;;;5094169;28;20048;-67
2023/01/08 03:30:49;;;;;;;6.22;2.35;;;7.90;99.90;;;;;;5092502;28;20430;-67
2023/01/08 03:33:17;;;;;;;8.30;2.45;;;8.00;99.90;;;;;;5091602;28;20043;-67
2023/01/08 03:35:48;;;;;;;8.02;2.70;;;7.90;99.90;;;;;;5093820;28;20044;-67
2023/01/08 03:38:20;;;;;;;8.10;1.98;;;7.90;99.90;;;;;;5093999;28;20071;-66
2023/01/08 03:40:52;;;;;;;7.18;2.47;;;8.00;99.90;;;;;;5092219;28;20423;-66
2023/01/08 03:43:19;;;;;;;11.57;2.45;;;7.90;99.90;;;;;;5092449;28;20036;-67
2023/01/08 03:45:51;;;;;;;8.15;2.00;;;8.00;99.90;;;;;;5093172;28;20055;-67
2023/01/08 03:48:20;;;;;;;9.27;2.83;;;7.90;99.90;;;;;;5093972;28;20047;-67
2023/01/08 03:50:47;;;;;;;12.35;2.10;;;7.90;99.90;;;;;;5075662;28;20117;-67
2023/01/08 03:53:15;;;;;;;7.55;2.38;;;7.90;99.90;;;;;;5075064;28;20044;-66
2023/01/08 03:55:41;;;;;;;5.65;2.83;;;7.80;99.90;;;;;;5075776;28;20044;-67
2023/01/08 03:58:09;;;;;;;8.60;2.67;;;7.80;99.90;;;;;;5075349;28;20055;-67
2023/01/08 04:00:35;;;;;;;5.38;1.95;;;7.80;99.90;;;;;;5092925;28;20055;-67
2023/01/08 04:03:04;;;;;;;8.82;3.00;;;7.80;99.90;;;;;;5092755;28;20484;-67
2023/01/08 04:05:31;;;;;;;8.40;2.45;;;7.80;99.90;;;;;;5093370;28;20044;-67
2023/01/08 04:07:58;;;;;;;5.57;2.33;;;7.80;99.90;;;;;;5074666;28;20044;-66
2023/01/08 04:10:26;;;;;;;7.18;2.40;;;7.70;99.90;;;;;;5075050;28;20110;-67
2023/01/08 04:12:53;;;;;;;7.53;2.28;;;7.70;99.90;;;;;;5093384;28;20097;-68
2023/01/08 04:15:20;;;;;;;9.60;2.38;;;7.60;99.90;;;;;;5074373;28;20508;-67
2023/01/08 04:17:47;;;;;;;5.60;2.47;;;7.60;99.90;;;;;;5075331;28;20048;-67
2023/01/08 04:20:15;;;;;;;8.43;2.63;;;7.60;99.90;;;;;;5092901;28;20047;-67
2023/01/08 04:22:42;;;;;;;7.57;2.72;;;7.60;99.90;;;;;;5074218;28;20044;-67
2023/01/08 04:25:09;;;;;;;10.05;2.67;;;7.60;99.90;;;;;;5074917;28;20118;-67
2023/01/08 04:27:36;;;;;;;10.50;2.50;;;7.50;99.90;;;;;;5092958;28;20044;-67
2023/01/08 04:30:04;;;;;;;7.05;2.53;;;7.50;99.90;;;;;;5074346;28;20149;-66
2023/01/08 04:32:31;;;;;;;8.65;3.20;;;7.50;99.90;;;;;;5074879;28;20088;-67
2023/01/08 04:34:58;;;;;;;10.23;2.63;;;7.50;99.90;;;;;;5074285;28;20058;-67
2023/01/08 04:37:26;;;;;;;7.10;2.30;;;7.50;99.90;;;;;;5074840;28;20048;-67
2023/01/08 04:39:53;;;;;;;9.15;2.67;;;7.50;99.90;;;;;;5092853;28;20428;-67
2023/01/08 04:42:20;;;;;;;7.82;2.90;;;7.50;99.90;;;;;;5090093;28;20044;-67
2023/01/08 04:44:47;;;;;;;7.55;2.25;;;7.50;99.90;;;;;;5074527;28;20105;-67
2023/01/08 04:47:14;;;;;;;6.05;2.30;;;7.50;99.90;;;;;;5074698;28;20055;-66
2023/01/08 04:49:40;;;;;;;6.75;2.33;;;7.50;99.90;;;;;;5073989;28;20071;-67
2023/01/08 04:52:07;;;;;;;10.20;3.28;;;7.50;99.90;;;;;;5074676;28;20109;-67
2023/01/08 04:54:35;;;;;;;8.48;3.30;;;7.50;99.90;;;;;;5074304;28;20048;-67
2023/01/08 04:57:02;;;;;;;8.05;2.53;;;7.50;99.90;;;;;;5091775;28;20059;-66
2023/01/08 04:59:29;;;;;;;7.90;2.72;;;7.50;99.90;;;;;;5092354;28;20048;-67
2023/01/08 05:01:56;;;;;;;11.77;2.38;;;7.50;99.90;;;;;;5074474;28;20105;-67
2023/01/08 05:04:23;;;;;;;8.13;3.22;;;7.40;99.90;;;;;;5073706;28;20434;-67
2023/01/08 05:06:50;;;;;;;10.30;3.00;;;7.40;99.90;;;;;;5092319;28;20052;-66
2023/01/08 05:09:17;;;;;;;6.75;2.92;;;7.40;99.90;;;;;;5074155;28;20048;-67
2023/01/08 05:11:45;;;;;;;7.78;3.00;;;7.50;99.90;;;;;;5073604;28;20055;-67
2023/01/08 05:14:12;;;;;;;8.35;2.95;;;7.40;99.90;;;;;;5073535;28;20556;-67
2023/01/08 05:16:39;;;;;;;9.25;3.05;;;7.50;99.90;;;;;;5074353;28;20059;-67
2023/01/08 05:19:06;;;;;;;9.65;3.17;;;7.50;99.90;;;;;;5089325;28;20071;-67
2023/01/08 05:21:33;;;;;;;5.30;3.10;;;7.50;99.90;;;;;;5074227;28;20055;-67
2023/01/08 05:24:00;;;;;;;8.45;3.47;;;7.50;99.90;;;;;;5071805;28;20523;-67
2023/01/08 05:26:27;;;;;;;8.35;2.80;;;7.50;99.90;;;;;;5074244;28;20507;-67
2023/01/08 05:28:55;;;;;;;8.77;3.03;;;7.50;99.90;;;;;;5092103;28;20109;-67
2023/01/08 05:31:22;;;;;;;9.05;2.97;;;7.60;99.90;;;;;;5091356;28;20443;-66
2023/01/08 05:33:50;;;;;;;7.05;3.35;;;7.60;99.90;;;;;;5091979;28;20442;-66
2023/01/08 05:36:17;;;;;;;6.40;2.53;;;7.60;99.90;;;;;;5092055;28;20051;-67
2023/01/08 05:38:44;;;;;;;6.30;3.13;;;7.60;99.90;;;;;;5091370;28;20461;-67
2023/01/08 05:41:11;;;;;;;5.00;2.60;;;7.60;99.90;;;;;;5091910;28;20047;-67
2023/01/08 05:43:38;;;;;;;5.63;3.00;;;7.60;99.90;;;;;;5073909;28;20097;-68
2023/01/08 05:46:06;;;;;;;4.18;2.58;;;7.70;99.90;;;;;;5091528;28;20044;-68
2023/01/08 05:48:36;;;;;;;5.63;3.08;;;7.60;99.90;;;;;;5073952;28;20519;-66
2023/01/08 05:51:03;;;;;;;6.32;3.58;;;7.70;99.90;;;;;;5073782;28;20048;-68
2023/01/08 05:53:31;;;;;;;5.18;2.60;;;7.70;99.90;;;;;;5073432;28;20060;-67
2023/01/08 05:55:59;;;;;;;18.77;3.47;;;7.70;99.90;;;;;;5073937;28;20087;-68
2023/01/08 05:58:26;;;;;;;5.18;2.33;;;7.70;99.90;;;;;;5073644;28;20105;-67
2023/01/08 06:00:53;;;;;;;6.32;2.88;;;7.70;99.90;;;;;;5091307;28;20070;-68
2023/01/08 06:03:23;;;;;;;8.70;3.05;;;7.70;99.90;;;;;;5091762;28;20416;-67
2023/01/08 06:05:49;;;;;;;6.25;2.40;;;7.70;99.90;;;;;;5091764;28;20051;-67
2023/01/08 06:08:16;;;;;;;5.65;2.88;;;7.70;99.90;;;;;;5073254;28;20506;-67
2023/01/08 06:10:43;;;;;;;5.20;2.40;;;7.60;99.90;;;;;;5091401;28;20044;-67
2023/01/08 06:13:10;;;;;;;7.18;2.70;;;7.70;99.90;;;;;;5091912;28;20055;-67
2023/01/08 06:15:39;;;;;;;4.97;2.00;;;7.70;99.90;;;;;;5091190;28;20049;-67
2023/01/08 06:18:06;;;;;;;6.10;2.10;;;7.70;99.90;;;;;;5073679;28;20140;-67
2023/01/08 06:20:34;;;;;;;4.32;2.20;;;7.70;99.90;;;;;;5072624;28;20076;-66
2023/01/08 06:23:01;;;;;;;3.40;1.98;;;7.60;99.90;;;;;;5073645;28;20052;-67
2023/01/08 06:25:29;;;;;;;4.50;2.00;;;7.70;99.90;;;;;;5075159;28;20040;-67
2023/01/08 06:27:56;;;;;;;4.30;1.95;;;7.60;99.90;;;;;;5076749;28;20056;-67
2023/01/08 06:30:23;;;;;;;4.90;2.05;;;7.60;99.90;;;;;;5095305;28;20048;-67
2023/01/08 06:32:50;;;;;;;6.30;2.20;;;7.70;99.90;;;;;;5095155;28;20104;-67
2023/01/08 06:35:17;;;;;;;8.70;2.78;;;7.70;99.90;;;;;;5076683;28;20483;-66
2023/01/08 06:37:45;;;;;;;4.10;2.33;;;7.70;99.90;;;;;;5077246;28;20101;-67
2023/01/08 06:40:12;;;;;;;4.47;2.25;;;7.70;99.90;;;;;;5094841;28;20480;-67
2023/01/08 06:42:39;;;;;;;5.25;3.00;;;7.70;99.90;;;;;;5076658;28;20048;-67
2023/01/08 06:45:07;;;;;;;5.05;2.30;;;7.70;99.90;;;;;;5076786;28;20123;-67
2023/01/08 06:47:34;;;;;;;5.75;2.75;;;7.70;99.90;;;;;;5077100;28;20071;-67
2023/01/08 06:50:01;;;;;;;5.18;2.38;;;7.60;99.90;;;;;;5094210;28;20082;-67
2023/01/08 06:52:28;;;;;;;4.25;2.55;;;7.60;99.90;;;;;;5077018;28;20472;-68
2023/01/08 06:54:56;;;;;;;4.22;2.10;;;7.50;99.90;;;;;;5076992;28;20048;-67
2023/01/08 06:57:23;;;;;;;5.50;2.63;;;7.40;99.90;;;;;;5094104;28;20056;-67
2023/01/08 06:59:50;;;;;;;5.10;2.60;;;7.40;99.90;;;;;;5094458;28;20048;-67
2023/01/08 07:02:18;;;;;;;4.05;2.80;;;7.40;99.90;;;;;;5094804;28;20442;-67
2023/01/08 07:04:45;;;;;;;4.72;2.63;;;7.50;99.90;;;;;;5073931;28;20047;-68
2023/01/08 07:07:13;;;;;;;7.00;2.75;;;7.50;99.90;;;;;;5076592;28;20055;-67
2023/01/08 07:09:40;;;;;;;6.88;3.20;;;7.50;99.90;;;;;;5093926;28;20203;-67
2023/01/08 07:12:12;;;;;;;4.68;2.67;;;7.40;99.90;;;;;;5076383;28;20052;-67
2023/01/08 07:14:39;;;;;;;5.65;2.50;;;7.40;99.90;;;;;;5094580;28;20133;-67
2023/01/08 07:17:06;;;;;;;6.82;3.78;;;7.40;99.90;;;;;;5091709;28;20052;-67
2023/01/08 07:19:33;;;;;;;4.75;2.65;;;7.40;99.90;;;;;;5094057;28;20055;-67
2023/01/08 07:22:00;;;;;;;7.43;2.90;;;7.40;99.90;;;;;;5092512;28;20056;-67
2023/01/08 07:24:27;;;;;;;4.80;3.00;;;7.40;99.90;;;;;;5075439;28;20055;-67
2023/01/08 07:26:54;;;;;;;7.05;3.28;;;7.30;99.90;;;;;;5076367;28;20432;-67
2023/01/08 07:29:22;;;;;;;4.90;2.85;;;7.30;99.90;;;;;;5068896;28;21308;-67
2023/01/08 07:31:49;;;;;;;8.02;2.78;;;7.30;99.90;;;;;;5080304;28;20044;-65
2023/01/08 07:34:16;;;;;;;8.23;3.13;;;7.20;99.90;;;;;;5068689;28;20059;-67
2023/01/08 07:36:43;;;;;;;5.45;2.72;;;7.20;99.90;;;;;;5068722;28;20048;-67
2023/01/08 07:39:10;;;;;;;7.10;2.67;;;7.10;99.90;;;;;;5067642;28;20753;-67
2023/01/08 07:41:37;;;;;;;6.55;2.90;;;7.10;99.90;;;;;;5074013;28;20055;-67
2023/01/08 07:44:05;;;;;;;9.27;3.63;;;7.20;99.90;;;;;;5069191;28;20056;-67
2023/01/08 07:46:33;;;;;;;7.32;2.63;;;7.20;99.90;;;;;;5087396;28;20048;-67
2023/01/08 07:49:00;;;;;;;8.38;3.30;;;7.10;99.90;;;;;;5073107;28;20051;-66
2023/01/08 07:51:28;;;;;;;7.30;3.03;;;7.10;99.90;;;;;;5070780;28;20071;-67
2023/01/08 07:53:56;;;;;;;7.55;3.20;;;7.20;99.90;;;;;;5087452;28;20052;-67
2023/01/08 07:56:23;;;;;;;5.55;3.03;;;7.20;99.90;;;;;;5069565;28;20071;-67
2023/01/08 07:58:51;;;;;;;11.65;3.92;;;7.20;99.90;;;;;;5090103;28;20516;-68
2023/01/08 08:01:18;;;;;;;10.77;3.80;;;7.20;99.90;;;;;;5069677;28;20047;-67
2023/01/08 08:03:47;;;;;;;10.52;4.07;;;7.20;99.90;;;;;;5087192;28;20044;-67
2023/01/08 08:06:15;;;;;;;7.53;3.60;;;7.20;99.90;;;;;;5086149;28;20423;-65
2023/01/08 08:08:42;;;;;;;9.85;4.10;;;7.10;99.90;;;;;;5090500;28;20079;-66
2023/01/08 08:11:10;;;;;;;9.30;4.05;;;7.10;99.90;;;;;;5066690;28;20514;-66
2023/01/08 08:13:41;;;;;;;13.02;4.80;;;7.00;99.90;;;;;;5068093;28;20058;-66
2023/01/08 08:16:09;;;;;;;8.73;4.03;;;7.00;99.90;;;;;;5087153;28;20071;-66
2023/01/08 08:18:36;;;;;;;9.35;3.67;;;7.00;99.90;;;;;;5086416;28;20041;-66
2023/01/08 08:21:05;;;;;;;9.93;4.00;;;7.00;99.90;;;;;;5087230;28;20486;-67
2023/01/08 08:23:33;;;;;;;5.90;3.35;;;7.00;99.90;;;;;;5070408;28;20040;-67
2023/01/08 08:26:03;;;;;;;11.48;4.00;;;7.00;99.90;;;;;;5070718;28;20492;-67
2023/01/08 08:28:30;;;;;;;8.80;3.42;;;7.20;99.90;;;;;;5068177;28;20131;-67
2023/01/08 08:30:58;;;;;;;11.13;3.83;;;7.60;99.90;;;;;;5070254;28;20052;-67
2023/01/08 08:33:25;;;;;;;7.25;3.20;;;8.20;99.90;;;;;;5065707;28;20098;-68
2023/01/08 08:35:53;;;;;;;5.85;2.75;;;8.60;99.90;;;;;;5066791;28;20514;-67
2023/01/08 08:38:23;;;;;;;7.53;2.90;;;9.20;99.90;;;;;;5086708;28;20065;-67
2023/01/08 08:40:51;;;;;;;4.82;2.50;;;9.70;99.90;;;;;;5072498;28;20063;-66
2023/01/08 08:43:19;;;;;;;9.95;3.58;;;10.30;99.90;;;;;;5087519;28;20055;-66
2023/01/08 08:45:46;;;;;;;8.80;2.83;;;10.50;99.90;;;;;;5069799;28;20177;-65
2023/01/08 08:48:15;;;;;;;5.95;1.98;;;10.90;99.90;;;;;;5068148;28;20040;-67
2023/01/08 08:50:43;;;;;;;5.88;2.30;;;11.10;99.90;;;;;;5087184;28;20079;-66
2023/01/08 08:53:10;;;;;;;4.38;2.17;;;11.30;99.90;;;;;;5087638;28;20421;-67
2023/01/08 08:55:39;;;;;;;4.68;1.98;;;11.40;99.90;;;;;;5084896;28;20052;-66
2023/01/08 08:58:09;;;;;;;6.90;2.58;;;11.70;99.90;;;;;;5064294;28;20136;-67
2023/01/08 09:00:37;;;;;;;4.75;2.70;;;12.00;99.90;;;;;;5066062;28;20060;-68
2023/01/08 09:03:05;;;;;;;5.10;2.33;;;12.50;99.90;;;;;;5066188;28;20049;-66
2023/01/08 09:05:36;;;;;;;8.15;2.65;;;12.70;99.90;;;;;;5064411;28;20578;-67
2023/01/08 09:08:03;;;;;;;6.60;2.17;;;12.90;99.90;;;;;;5065276;28;20044;-67
2023/01/08 09:10:31;;;;;;;5.95;2.50;;;13.20;99.90;;;;;;5065428;28;20403;-67
2023/01/08 09:13:00;;;;;;;4.50;2.20;;;13.60;99.90;;;;;;5067022;28;20051;-67
2023/01/08 09:15:28;;;;;;;3.83;1.90;;;14.00;99.90;;;;;;5068464;28;20463;-67
2023/01/08 09:17:56;;;;;;;5.88;2.13;;;14.20;99.90;;;;;;5067590;28;20053;-67
2023/01/08 09:20:25;;;;;;;6.93;2.38;;;14.30;99.90;;;;;;5063901;28;20086;-67
2023/01/08 09:22:52;;;;;;;3.97;1.70;;;14.60;99.90;;;;;;5065136;28;20076;-67
2023/01/08 09:25:20;;;;;;;7.32;2.40;;;14.80;99.90;;;;;;5063034;28;20055;-67
2023/01/08 09:27:48;;;;;;;7.65;2.45;;;15.00;99.90;;;;;;5064201;28;20135;-67
2023/01/08 09:30:17;;;;;;;6.38;2.30;;;15.00;99.90;;;;;;5070015;28;20067;-67
2023/01/08 09:32:44;;;;;;;4.00;2.08;;;15.10;99.90;;;;;;5069622;28;20044;-68
2023/01/08 09:35:12;;;;;;;4.65;2.10;;;15.30;99.90;;;;;;5068478;28;20051;-68
2023/01/08 09:37:39;;;;;;;4.00;1.92;;;15.70;99.90;;;;;;5070342;28;20136;-68
2023/01/08 09:40:10;;;;;;;5.47;1.80;;;15.70;99.90;;;;;;5071569;28;20076;-67
2023/01/08 09:42:38;;;;;;;5.88;2.42;;;15.70;99.90;;;;;;5070785;28;20056;-67
2023/01/08 09:45:26;;;;;;;6.72;2.60;;;15.60;99.90;;;;;;5069924;28;20080;-68
2023/01/08 09:47:55;;;;;;;5.60;1.85;;;16.00;99.90;;;;;;5070167;28;20055;-67
2023/01/08 09:50:25;;;;;;;6.22;2.40;;;16.10;99.90;;;;;;5070427;28;20071;-68
2023/01/08 09:52:53;;;;;;;4.32;1.85;;;16.40;99.90;;;;;;5069927;28;20135;-68
2023/01/08 09:55:22;;;;;;;6.50;1.92;;;16.10;99.90;;;;;;5070479;28;20047;-68
2023/01/08 09:57:49;;;;;;;7.90;1.98;;;16.50;99.90;;;;;;5079161;28;20044;-68
2023/01/08 10:00:21;;;;;;;6.00;1.73;;;15.90;99.90;;;;;;5074743;28;20047;-68
2023/01/08 10:02:52;;;;;;;7.13;1.95;;;16.00;99.90;;;;;;5096021;28;20055;-68
2023/01/08 10:05:20;;;;;;;7.28;2.38;;;16.00;99.90;;;;;;5076324;28;20044;-68
2023/01/08 10:07:48;;;;;;;3.63;1.52;;;16.50;99.90;;;;;;5094743;28;20051;-67
2023/01/08 10:10:22;;;;;;;3.83;1.80;;;16.50;99.90;;;;;;5077506;28;20552;-67
2023/01/08 10:12:50;;;;;;;6.63;2.00;;;16.90;99.90;;;;;;5075955;28;20050;-67
2023/01/08 10:15:20;;;;;;;6.30;2.22;;;17.10;99.90;;;;;;5093425;28;20484;-68
2023/01/08 10:17:55;;;;;;;4.43;1.75;;;16.90;99.90;;;;;;5095366;28;20048;-68
2023/01/08 10:20:24;;;;;;;7.00;2.20;;;16.80;99.90;;;;;;5095123;28;20139;-68
2023/01/08 10:22:53;;;;;;;6.30;1.70;;;16.70;99.90;;;;;;5095511;28;20048;-67
2023/01/08 10:25:23;;;;;;;3.90;1.80;;;16.70;99.90;;;;;;5075058;28;20160;-66
2023/01/08 10:27:52;;;;;;;4.95;1.70;;;17.10;99.90;;;;;;5094890;28;20427;-67
2023/01/08 10:30:33;;;;;;;5.15;1.70;;;17.00;99.90;;;;;;5077230;28;20048;-67
2023/01/08 10:33:07;;;;;;;7.00;2.13;;;17.40;99.90;;;;;;5077200;28;20047;-67
2023/01/08 10:35:37;;;;;;;4.82;1.83;;;17.30;99.80;;;;;;5094487;28;20150;-67
2023/01/08 10:38:04;;;;;;;;;;;17.30;99.80;;;;;;5095781;28;20052;-68
2023/01/08 10:40:38;;;;;;;8.88;2.20;;;17.40;99.40;;;;;;5075173;28;19920;-67
2023/01/08 10:43:12;;;;;;;4.90;2.00;;;17.80;99.50;;;;;;5094521;28;20094;-67
2023/01/08 10:45:40;;;;;;;7.25;2.10;;;18.00;99.30;;;;;;5095438;28;20032;-67
2023/01/08 10:48:18;;;;;;;10.07;2.22;;;17.70;99.90;;;;;;5094371;28;20146;-68
2023/01/08 10:50:46;;;;;;;5.35;1.77;;;18.20;99.20;;;;;;5094872;28;20048;-67
2023/01/08 10:53:24;;;;;;;7.63;1.83;;;18.40;99.70;;;;;;5076857;28;20044;-67
2023/01/08 10:55:58;;;;;;;6.90;2.63;;;17.70;97.90;;;;;;5093196;28;20067;-67
2023/01/08 10:58:29;;;;;;;9.80;1.80;;;16.80;99.00;;;;;;5093450;28;20048;-67
2023/01/08 11:01:08;;;;;;;9.60;2.60;;;15.60;99.90;;;;;;5076918;28;20048;-67
2023/01/08 11:03:37;;;;;;;8.82;2.40;;;14.50;99.90;;;;;;5093127;28;20048;-68
2023/01/08 11:06:12;;;;;;;10.63;2.10;;;14.20;99.90;;;;;;5076380;28;20496;-68
2023/01/08 11:08:40;;;;;;;6.85;2.45;;;14.30;99.90;;;;;;5075200;28;20067;-67
2023/01/08 11:11:10;;;;;;;8.48;2.10;;;14.30;99.90;;;;;;5092681;28;20119;-67
2023/01/08 11:13:38;;;;;;;6.20;2.20;;;13.80;99.90;;;;;;5076504;28;20457;-67
2023/01/08 11:16:09;;;;;;;7.43;2.22;;;14.60;99.90;;;;;;5075901;28;20431;-67
2023/01/08 11:18:47;;;;;;;5.75;1.67;;;14.80;99.90;;;;;;5074224;28;20048;-66
2023/01/08 11:21:21;;;;;;;9.57;2.25;;;15.40;99.90;;;;;;5074580;28;20047;-67
2023/01/08 11:24:00;;;;;;;7.13;1.90;;;15.40;99.90;;;;;;5091854;28;20131;-66
2023/01/08 11:26:29;;;;;;;8.43;2.25;;;15.60;99.90;;;;;;5074548;28;20036;-66
2023/01/08 11:29:02;;;;;;;6.25;1.98;;;16.10;99.90;;;;;;5094105;28;20050;-67
2023/01/08 11:31:37;;;;;;;8.23;1.88;;;16.10;99.90;;;;;;5075597;28;20071;-67
2023/01/08 11:34:12;;;;;;;8.40;2.08;;;15.80;99.90;;;;;;5076377;28;20055;-67
2023/01/08 11:36:49;;;;;;;6.45;2.25;;;16.10;99.90;;;;;;5075238;28;20055;-67
2023/01/08 11:39:17;;;;;;;11.27;2.20;;;16.60;99.90;;;;;;5093106;28;20519;-67
2023/01/08 11:42:18;;;;;;;5.22;1.90;;;16.60;99.90;;;;;;5094031;28;20052;-67
2023/01/08 11:44:59;;;;;;;6.38;2.05;;;17.10;99.90;;;;;;5073609;28;20438;-67
2023/01/08 11:47:41;;;;;;;11.95;2.60;;;16.50;99.80;;;;;;5074533;28;20036;-67
2023/01/08 11:50:21;;;;;;;6.88;2.08;;;16.40;99.90;;;;;;5093446;28;20044;-67
2023/01/08 11:53:10;;;;;;;6.00;2.03;;;16.20;99.60;;;;;;5073378;28;20093;-67
2023/01/08 11:55:47;;;;;;;8.15;2.50;;;16.30;99.60;;;;;;5073752;28;20040;-67
2023/01/08 11:58:23;;;;;;;7.35;2.55;;;16.50;99.90;;;;;;5092475;28;20063;-67
2023/01/08 12:01:21;;;;;;;9.50;2.65;;;16.60;99.30;;;;;;5074465;28;20425;-67
2023/01/08 12:03:56;;;;;;;7.85;2.45;;;17.00;99.30;;;;;;5075061;28;20063;-66
2023/01/08 12:06:36;;;;;;;9.60;2.83;;;17.20;98.60;;;;;;5092348;28;20043;-67
2023/01/08 12:09:20;;;;;;;7.88;2.30;;;16.90;99.00;;;;;;5075477;28;20450;-66
2023/01/08 12:11:53;;;;;;;5.50;2.30;;;16.60;99.30;;;;;;5074500;28;20461;-66
2023/01/08 12:14:38;;;;;;;7.38;2.33;;;17.00;98.60;;;;;;5091269;28;20077;-67
2023/01/08 12:17:19;;;;;;;7.53;2.80;;;17.50;98.20;;;;;;5073270;28;20456;-67
2023/01/08 12:20:00;;;;;;;9.25;2.65;;;17.50;98.10;;;;;;5091308;28;20040;-67
2023/01/08 12:22:41;;;;;;;5.60;2.75;;;17.50;97.80;;;;;;5092683;28;20044;-66
2023/01/08 12:25:41;;;;;;;9.15;2.30;;;16.70;98.30;;;;;;5091524;28;20499;-66
2023/01/08 12:28:27;;;;;;;8.68;2.78;;;15.10;99.90;;;;;;5067341;28;20067;-67
2023/01/08 12:31:27;;;;;;;6.15;2.42;;;13.70;99.90;;;;;;5073818;28;20063;-67
2023/01/08 12:33:58;;;;;;;9.98;2.67;;;13.10;99.90;;;;;;5092386;28;20043;-67
2023/01/08 12:36:33;;;;;;;10.25;2.55;;;12.60;99.90;;;;;;5074875;28;20036;-67
2023/01/08 12:39:05;;;;;;;3.72;2.00;;;13.10;99.90;;;;;;5092624;28;20048;-66
2023/01/08 12:41:35;;;;;;;5.60;2.50;;;13.40;99.90;;;;;;5074326;28;20052;-66
2023/01/08 12:44:04;;;;;;;8.07;2.35;;;13.30;99.90;;;;;;5072979;28;20130;-66
2023/01/08 12:46:35;;;;;;;8.02;2.70;;;13.40;99.90;;;;;;5092358;28;20044;-67
2023/01/08 12:49:05;;;;;;;7.10;2.40;;;13.60;99.90;;;;;;5091903;28;20510;-67
2023/01/08 12:51:38;;;;;;;8.25;2.75;;;13.70;99.90;;;;;;5092649;28;20048;-67
2023/01/08 12:54:20;;;;;;;7.68;2.40;;;14.30;99.90;;;;;;5073321;28;20113;-67
2023/01/08 12:56:54;;;;;;;7.95;2.22;;;13.90;99.90;;;;;;5073806;28;20132;-66
2023/01/08 12:59:31;;;;;;;13.40;2.40;;;14.10;99.90;;;;;;5074249;28;20052;-66
2023/01/08 13:02:07;;;;;;;7.65;2.97;;;13.70;99.90;;;;;;5074085;28;20428;-66
2023/01/08 13:04:42;;;;;;;7.07;2.53;;;13.30;99.90;;;;;;5092319;28;20051;-66
2023/01/08 13:07:16;;;;;;;7.38;2.67;;;14.10;99.90;;;;;;5092175;28;20052;-66